Time;durP1;ratioP1;P1;durP2;ratioP2;P2;SDS_P1;SDS_P2;PMS_P1;PMS_P2;Temp;Humidity;BMP_temperature;BMP_pressure;BME280_temperature;BME280_humidity;BME280_pressure;Samples;Min_cycle;Max_cycle;Signal;HPM_P1;HPM_P2
2021/03/27 00:36:05;;;;;;;;;;;;;;;3.19;81.04;101150.38;4833247;29;19933;-78
2021/03/27 01:59:32;;;;;;;;;;;;;;;;;;;;;
2021/03/27 03:39:12;;;;;;;;;;;;;;;2.05;81.40;101273.09;5166806;27;19933;-75
2021/03/27 03:42:08;;;;;;;;;;;;;;;2.03;81.07;101272.47;5116025;27;20011;-75
2021/03/27 03:44:40;;;;;;;;;;;;;;;2.00;81.24;101285.53;5104675;27;19935;-76
2021/03/27 03:47:15;;;;;;;;;;;;;;;1.99;81.25;101289.34;5117052;27;19922;-76
2021/03/27 03:49:59;;;;;;;;;;;;;;;2.00;81.40;101287.44;5116390;27;19979;-75
2021/03/27 03:52:27;;;;;;;;;;;;;;;1.96;81.28;101283.47;5129943;27;19923;-75
2021/03/27 03:54:53;;;;;;;;;;;;;;;1.92;81.49;101288.53;5130993;27;20422;-75
2021/03/27 03:57:40;;;;;;;;;;;;;;;1.92;81.46;101288.53;5111044;27;19972;-76
2021/03/27 04:00:24;;;;;;;;;;;;;;;1.93;81.35;101282.00;5120300;27;20002;-75
2021/03/27 04:03:10;;;;;;;;;;;;;;;1.91;81.42;101281.38;5102322;27;19915;-76
2021/03/27 04:05:56;;;;;;;;;;;;;;;1.89;81.47;101290.84;5127274;27;19937;-75
2021/03/27 04:08:48;;;;;;;;;;;;;;;1.86;81.54;101294.88;5093452;27;19915;-76
2021/03/27 04:11:23;;;;;;;;;;;;;;;1.85;81.33;101300.59;5103180;27;20006;-76
2021/03/27 04:13:56;;;;;;;;;;;;;;;1.83;81.15;101306.25;5133863;27;19911;-75
2021/03/27 04:16:31;;;;;;;;;;;;;;;1.83;81.26;101309.00;5117373;27;19936;-76
2021/03/27 04:19:16;;;;;;;;;;;;;;;1.81;81.23;101308.38;5127574;27;19916;-75
2021/03/27 04:22:13;;;;;;;;;;;;;;;1.82;81.43;101315.56;5117181;27;19919;-75
2021/03/27 04:24:50;;;;;;;;;;;;;;;1.78;81.50;101312.41;5130214;27;19919;-76
2021/03/27 04:27:19;;;;;;;;;;;;;;;1.77;81.46;101313.44;5115195;27;19923;-75
2021/03/27 04:29:54;;;;;;;;;;;;;;;1.76;81.37;101317.25;5115273;27;19916;-75
2021/03/27 04:32:30;;;;;;;;;;;;;;;1.77;81.40;101334.53;5136859;27;19943;-75
2021/03/27 04:39:18;;;;;;;;;;;;;;;1.74;81.44;101334.97;5058879;28;19975;-75
2021/03/27 04:41:57;;;;;;;;;;;;;;;1.74;81.36;101345.91;5098271;28;19916;-76
2021/03/27 04:44:38;;;;;;;;;;;;;;;1.70;81.42;101336.44;5096686;27;20524;-75
2021/03/27 04:47:40;;;;;;;;;;;;;;;1.69;81.61;101348.44;5129830;27;19951;-76
2021/03/27 04:51:03;;;;;;;;;;;;;;;1.68;81.34;101346.78;5065647;27;19938;-76
2021/03/27 04:53:56;;;;;;;;;;;;;;;1.68;81.58;101350.34;5098589;28;19915;-78
2021/03/27 04:56:59;;;;;;;;;;;;;;;1.66;81.34;101359.84;5098310;28;19927;-76
2021/03/27 05:03:00;;;;;;;;;;;;;;;1.64;81.35;101375.63;5062557;28;20288;-76
2021/03/27 05:06:04;;;;;;;;;;;;;;;;;;;;;
2021/03/27 05:08:55;;;;;;;;;;;;;;;;;;;;;
2021/03/27 05:12:02;;;;;;;;;;;;;;;1.61;81.42;101374.16;5061252;28;19977;-75
2021/03/27 05:15:08;;;;;;;;;;;;;;;1.61;81.66;101381.53;5055598;28;19924;-76
2021/03/27 05:20:57;;;;;;;;;;;;;;;1.56;81.58;101388.50;4981748;28;19922;-76
2021/03/27 05:23:35;;;;;;;;;;;;;;;1.56;81.50;101391.25;4973959;28;20344;-76
2021/03/27 05:27:07;;;;;;;;;;;;;;;;;;;;;
2021/03/27 05:30:03;;;;;;;;;;;;;;;;;;;;;
2021/03/27 05:32:49;;;;;;;;;;;;;;;1.47;81.53;101406.19;5013385;28;20004;-76
2021/03/27 05:35:55;;;;;;;;;;;;;;;1.51;81.59;101406.63;5022560;28;19916;-76
2021/03/27 05:39:07;;;;;;;;;;;;;;;;;;;;;
2021/03/27 05:42:29;;;;;;;;;;;;;;;1.47;81.58;101417.13;4988703;28;19917;-76
2021/03/27 05:45:46;;;;;;;;;;;;;;;;;;;;;
2021/03/27 05:48:26;;;;;;;;;;;;;;;1.39;81.80;101424.72;5026426;28;19913;-76
2021/03/27 05:51:30;;;;;;;;;;;;;;;1.37;81.74;101422.22;5034552;28;19925;-76
2021/03/27 05:54:13;;;;;;;;;;;;;;;1.35;81.74;101424.31;5031236;28;20320;-75
2021/03/27 05:57:05;;;;;;;;;;;;;;;1.39;81.78;101428.31;5034246;28;20269;-75
2021/03/27 05:59:53;;;;;;;;;;;;;;;1.33;82.01;101437.34;5082758;28;19923;-75
2021/03/27 06:02:40;;;;;;;;;;;;;;;1.35;82.20;101443.47;5072274;28;19916;-76
2021/03/27 06:05:29;;;;;;;;;;;;;;;1.33;82.08;101443.66;5085436;28;19985;-75
2021/03/27 06:08:23;;;;;;;;;;;;;;;1.37;82.04;101454.22;5090501;28;19916;-75
2021/03/27 06:10:56;;;;;;;;;;;;;;;1.34;82.29;101464.53;5094940;28;20441;-75
2021/03/27 06:13:41;;;;;;;;;;;;;;;1.33;82.23;101465.56;5077689;28;19973;-75
2021/03/27 06:16:33;;;;;;;;;;;;;;;1.38;82.17;101472.31;5078141;28;19934;-75
2021/03/27 06:19:23;;;;;;;;;;;;;;;1.39;82.29;101474.84;5077526;28;19924;-75
2021/03/27 06:22:13;;;;;;;;;;;;;;;1.39;82.27;101471.25;5095846;28;19916;-76
2021/03/27 06:25:00;;;;;;;;;;;;;;;1.43;82.41;101481.59;5095236;28;19912;-75
2021/03/27 06:27:51;;;;;;;;;;;;;;;1.50;82.27;101487.88;5095655;28;19942;-75
2021/03/27 06:31:12;;;;;;;;;;;;;;;1.49;82.26;101486.22;5087689;28;19981;-75
2021/03/27 06:34:07;;;;;;;;;;;;;;;1.53;82.35;101492.97;5074243;28;19924;-77
2021/03/27 06:37:27;;;;;;;;;;;;;;;;;;;;;
2021/03/27 06:43:55;;;;;;;;;;;;;;;;;;;;;
2021/03/27 07:16:09;;;;;;;;;;;;;;;2.76;82.48;101535.31;4890424;29;19920;-76
2021/03/27 08:40:01;;;;;;;;;;;;;;;8.15;79.85;101620.22;5123587;27;19924;-70
2021/03/27 08:42:26;;;;;;;;;;;;;;;8.29;79.61;101617.97;5118130;27;19989;-70
2021/03/27 08:44:55;;;;;;;;;;;;;;;8.44;81.21;101626.56;5117037;27;19912;-70
2021/03/27 08:47:31;;;;;;;;;;;;;;;8.62;80.14;101627.38;5138974;27;19919;-71
2021/03/27 08:50:00;;;;;;;;;;;;;;;8.79;81.16;101627.34;5115339;27;19998;-71
2021/03/27 08:52:44;;;;;;;;;;;;;;;8.95;81.54;101640.31;5136941;27;19919;-71
2021/03/27 08:55:12;;;;;;;;;;;;;;;9.15;79.60;101635.03;5126316;27;19958;-71
2021/03/27 08:57:40;;;;;;;;;;;;;;;9.34;79.71;101631.97;5128923;27;19924;-71
2021/03/27 09:00:24;;;;;;;;;;;;;;;9.50;80.10;101641.28;5136557;27;19919;-71
2021/03/27 09:02:58;;;;;;;;;;;;;;;9.70;77.65;101641.53;5126129;27;20275;-71
2021/03/27 09:05:39;;;;;;;;;;;;;;;9.87;77.40;101649.75;5133093;27;20019;-71
2021/03/27 09:08:07;;;;;;;;;;;;;;;10.05;79.78;101646.59;5133541;27;19915;-71
2021/03/27 09:10:36;;;;;;;;;;;;;;;10.22;77.65;101642.84;5136549;27;19916;-71
2021/03/27 09:13:04;;;;;;;;;;;;;;;10.37;79.32;101648.59;5118191;27;19915;-71
2021/03/27 09:15:30;;;;;;;;;;;;;;;10.52;77.70;101648.69;5131655;27;20387;-71
2021/03/27 09:17:59;;;;;;;;;;;;;;;10.68;76.41;101648.81;5136953;27;19920;-71
2021/03/27 09:20:28;;;;;;;;;;;;;;;10.84;76.72;101650.59;5107209;28;20337;-71
2021/03/27 09:22:55;;;;;;;;;;;;;;;10.99;75.86;101655.41;5111949;27;19916;-71
2021/03/27 09:25:41;;;;;;;;;;;;;;;11.12;75.27;101654.94;5115851;27;19923;-71
2021/03/27 09:28:06;;;;;;;;;;;;;;;11.32;76.60;101654.19;5085028;27;20002;-71
2021/03/27 09:30:34;;;;;;;;;;;;;;;11.49;75.81;101653.16;5130855;27;19955;-73
2021/03/27 09:33:19;;;;;;;;;;;;;;;11.66;76.88;101661.28;5121916;27;19963;-73
2021/03/27 09:35:58;;;;;;;;;;;;;;;11.83;78.22;101661.88;5114653;27;19922;-74
2021/03/27 09:38:25;;;;;;;;;;;;;;;12.02;77.12;101656.66;5100829;27;20545;-73
2021/03/27 09:41:09;;;;;;;;;;;;;;;12.12;76.76;101656.69;5082390;27;19930;-74
2021/03/27 09:43:50;;;;;;;;;;;;;;;12.23;74.86;101669.50;5097222;27;19923;-74
2021/03/27 09:46:35;;;;;;;;;;;;;;;12.38;76.31;101665.06;5088906;27;19915;-74
2021/03/27 09:49:27;;;;;;;;;;;;;;;12.54;75.44;101661.16;5091159;27;19994;-73
2021/03/27 09:52:01;;;;;;;;;;;;;;;12.75;75.07;101656.38;5082155;27;19915;-73
2021/03/27 09:54:28;;;;;;;;;;;;;;;12.90;74.72;101661.97;5101208;27;19922;-73
2021/03/27 09:56:56;;;;;;;;;;;;;;;13.06;75.96;101657.16;5085316;27;21799;-74
2021/03/27 09:59:43;;;;;;;;;;;;;;;13.17;74.09;101666.34;5099559;27;19925;-74
2021/03/27 10:02:08;;;;;;;;;;;;;;;13.29;73.24;101668.84;5122520;27;19922;-74
2021/03/27 10:04:40;;;;;;;;;;;;;;;13.38;72.40;101667.97;5113243;27;19915;-75
2021/03/27 10:07:08;;;;;;;;;;;;;;;13.47;71.39;101682.19;5134950;27;19916;-73
2021/03/27 10:09:33;;;;;;;;;;;;;;;13.56;71.16;101676.84;5100195;27;20077;-74
2021/03/27 10:12:00;;;;;;;;;;;;;;;13.67;70.13;101674.84;5113199;27;20411;-74
2021/03/27 10:14:26;;;;;;;;;;;;;;;13.75;69.68;101680.66;5111132;27;19916;-73
2021/03/27 10:16:54;;;;;;;;;;;;;;;13.84;69.34;101683.66;5111990;27;20382;-74
2021/03/27 10:19:19;;;;;;;;;;;;;;;13.89;67.93;101678.06;5093989;27;19954;-75
2021/03/27 10:21:50;;;;;;;;;;;;;;;13.93;66.44;101679.16;5095384;28;19922;-74
2021/03/27 10:24:24;;;;;;;;;;;;;;;14.01;67.43;101686.09;5113979;27;19915;-74
2021/03/27 10:26:55;;;;;;;;;;;;;;;14.12;68.21;101684.91;5122683;27;19915;-74
2021/03/27 10:29:48;;;;;;;;;;;;;;;14.19;67.63;101687.38;5104267;28;20325;-73
2021/03/27 10:32:40;;;;;;;;;;;;;;;14.27;67.56;101686.78;5091095;28;19915;-74
2021/03/27 10:35:17;;;;;;;;;;;;;;;14.31;67.71;101694.25;5103070;27;21663;-72
2021/03/27 11:58:11;;;;;;;;;;;;;;;15.47;60.76;101689.84;5990324;22;19987;-78
2021/03/27 12:03:43;;;;;;;;;;;;;;;15.61;61.41;101692.75;5065342;28;19995;-77
2021/03/27 12:06:26;;;;;;;;;;;;;;;15.72;61.12;101690.69;5059694;28;20274;-78
2021/03/27 12:09:11;;;;;;;;;;;;;;;15.80;60.90;101693.66;5058969;28;19966;-78
2021/03/27 12:11:51;;;;;;;;;;;;;;;15.89;60.81;101690.19;5076467;28;19955;-78
2021/03/27 12:14:19;;;;;;;;;;;;;;;15.95;60.07;101695.41;5079878;28;21987;-78
2021/03/27 12:16:56;;;;;;;;;;;;;;;16.04;60.29;101692.75;5060264;28;19962;-78
2021/03/27 12:19:26;;;;;;;;;;;;;;;16.07;59.84;101693.00;5057672;28;19920;-77
2021/03/27 12:22:01;;;;;;;;;;;;;;;16.14;59.94;101688.97;5065045;28;19917;-77
2021/03/27 12:24:45;;;;;;;;;;;;;;;16.23;59.75;101685.16;5061398;28;20265;-78
2021/03/27 12:27:14;;;;;;;;;;;;;;;16.29;59.72;101697.13;5070896;28;19920;-78
2021/03/27 12:29:40;;;;;;;;;;;;;;;16.33;59.80;101687.00;5080590;28;19942;-77
2021/03/27 12:32:24;;;;;;;;;;;;;;;16.30;59.41;101688.44;5049508;28;19920;-77
2021/03/27 12:34:52;;;;;;;;;;;;;;;16.35;58.90;101697.88;5057551;28;19955;-77
2021/03/27 12:37:17;;;;;;;;;;;;;;;16.45;60.46;101694.94;5063389;28;19977;-77
2021/03/27 12:39:43;;;;;;;;;;;;;;;16.55;59.64;101686.38;5076391;28;19920;-77
2021/03/27 12:42:14;;;;;;;;;;;;;;;16.62;58.72;101686.78;5075931;28;19920;-77
2021/03/27 12:44:51;;;;;;;;;;;;;;;16.67;58.94;101686.72;5071988;28;19924;-77
2021/03/27 12:50:47;;;;;;;;;;;;;;;16.80;59.62;101696.34;5093879;28;19934;-74
2021/03/27 13:30:17;;;;;;;;;;;;;;;17.25;58.90;101667.72;5944963;22;19925;-71
2021/03/27 13:32:43;;;;;;;;;;;;;;;17.34;58.33;101669.50;5066801;28;19924;-72
2021/03/27 13:35:21;;;;;;;;;;;;;;;17.41;57.87;101657.81;5060805;28;20438;-71
2021/03/27 13:37:46;;;;;;;;;;;;;;;17.53;56.87;101665.75;5042331;28;20011;-72
2021/03/27 13:40:17;;;;;;;;;;;;;;;17.62;55.58;101663.84;5046233;28;19964;-73
2021/03/27 13:42:44;;;;;;;;;;;;;;;17.71;56.28;101663.94;5061834;28;19962;-72
2021/03/27 13:45:28;;;;;;;;;;;;;;;17.83;55.52;101659.50;5051337;28;19974;-72
2021/03/27 13:48:12;;;;;;;;;;;;;;;17.97;56.44;101659.47;5082442;28;19916;-72
2021/03/27 13:50:43;;;;;;;;;;;;;;;18.10;55.92;101652.13;5080780;28;19959;-72
2021/03/27 13:53:18;;;;;;;;;;;;;;;18.18;54.54;101658.97;5040858;28;19970;-72
2021/03/27 13:55:52;;;;;;;;;;;;;;;18.21;55.21;101647.91;5068225;28;19917;-72
2021/03/27 13:58:22;;;;;;;;;;;;;;;18.26;55.21;101647.78;5065932;28;20004;-73
2021/03/27 14:00:49;;;;;;;;;;;;;;;18.27;54.90;101645.81;5067989;28;20046;-72
2021/03/27 14:03:19;;;;;;;;;;;;;;;18.29;54.46;101643.50;5067497;28;19962;-73
2021/03/27 14:05:48;;;;;;;;;;;;;;;18.33;54.63;101638.94;5082083;28;19977;-73
2021/03/27 14:08:31;;;;;;;;;;;;;;;18.32;53.71;101640.06;5069654;28;19916;-73
2021/03/27 14:10:57;;;;;;;;;;;;;;;18.34;53.50;101628.50;5073517;28;20339;-73
2021/03/27 14:13:34;;;;;;;;;;;;;;;18.36;53.44;101631.81;5073719;28;19999;-73
2021/03/27 14:16:12;;;;;;;;;;;;;;;18.39;53.68;101625.56;5064186;28;20380;-73
2021/03/27 14:19:04;;;;;;;;;;;;;;;18.39;53.61;101626.41;5082750;28;19921;-73
2021/03/27 14:21:48;;;;;;;;;;;;;;;18.40;53.10;101632.84;5046466;28;19952;-73
2021/03/27 14:24:16;;;;;;;;;;;;;;;18.37;52.85;101627.88;5079496;28;19916;-73
2021/03/27 14:27:02;;;;;;;;;;;;;;;18.34;52.77;101634.13;5080620;28;19920;-73
2021/03/27 14:29:34;;;;;;;;;;;;;;;18.27;54.19;101629.75;5085731;28;19916;-73
2021/03/27 14:41:26;;;;;;;;;;;;;;;17.49;56.42;101633.81;5088908;28;19925;-76
2021/03/27 14:43:56;;;;;;;;;;;;;;;17.42;55.65;101631.44;5065604;28;19918;-76
2021/03/27 14:46:24;;;;;;;;;;;;;;;17.39;55.72;101627.28;5066402;28;19916;-77
2021/03/27 14:48:57;;;;;;;;;;;;;;;17.38;56.20;101631.22;5062647;28;19939;-76
2021/03/27 14:51:41;;;;;;;;;;;;;;;17.40;55.99;101628.09;5048773;28;19916;-76
2021/03/27 14:54:24;;;;;;;;;;;;;;;17.42;55.75;101625.81;5061529;28;19930;-76
2021/03/27 14:56:55;;;;;;;;;;;;;;;17.40;55.50;101622.47;5083380;28;20431;-76
2021/03/27 14:59:24;;;;;;;;;;;;;;;17.38;55.50;101620.00;5062052;28;20116;-76
2021/03/27 15:01:57;;;;;;;;;;;;;;;17.37;55.59;101623.94;5054234;28;19948;-76
2021/03/27 15:04:23;;;;;;;;;;;;;;;17.33;55.56;101620.09;5052227;28;19920;-76
2021/03/27 15:06:51;;;;;;;;;;;;;;;17.31;54.91;101615.94;5062587;28;19916;-76
2021/03/27 15:09:27;;;;;;;;;;;;;;;17.25;54.94;101618.03;5076423;28;19920;-76
2021/03/27 15:12:05;;;;;;;;;;;;;;;17.16;55.00;101612.31;5058730;28;20133;-76
2021/03/27 15:14:49;;;;;;;;;;;;;;;17.11;55.47;101611.59;5053263;28;19916;-76
2021/03/27 15:17:29;;;;;;;;;;;;;;;16.99;55.23;101623.31;5086768;28;20057;-76
2021/03/27 15:19:57;;;;;;;;;;;;;;;16.89;55.38;101615.94;5067814;28;19961;-76
2021/03/27 15:22:23;;;;;;;;;;;;;;;16.79;55.71;101618.91;5081482;28;20015;-76
2021/03/27 15:27:38;;;;;;;;;;;;;;;16.52;56.22;101614.91;5048441;28;20023;-76
2021/03/27 15:30:07;;;;;;;;;;;;;;;16.39;56.43;101618.50;5038935;28;19917;-76
2021/03/27 15:32:44;;;;;;;;;;;;;;;16.31;56.73;101619.19;5045238;28;19916;-77
2021/03/27 15:35:10;;;;;;;;;;;;;;;16.18;57.16;101615.19;5092080;28;19959;-76
2021/03/27 15:37:35;;;;;;;;;;;;;;;16.12;57.62;101616.41;5081349;28;19942;-76
2021/03/27 15:40:16;;;;;;;;;;;;;;;16.04;57.83;101619.88;5086027;28;19927;-76
2021/03/27 15:42:50;;;;;;;;;;;;;;;15.98;57.72;101629.53;5083591;28;20392;-77
2021/03/27 15:45:28;;;;;;;;;;;;;;;15.90;57.96;101619.00;5085138;28;19972;-78
2021/03/27 15:48:05;;;;;;;;;;;;;;;15.83;58.03;101625.81;5081833;28;19920;-78
2021/03/27 15:50:31;;;;;;;;;;;;;;;15.79;58.15;101624.75;5062209;28;19917;-76
2021/03/27 15:53:04;;;;;;;;;;;;;;;15.73;58.67;101625.94;5059255;28;19980;-77
2021/03/27 15:55:31;;;;;;;;;;;;;;;15.70;59.04;101622.94;5049662;28;19955;-77
2021/03/27 15:57:57;;;;;;;;;;;;;;;15.64;58.97;101622.97;5061316;28;19960;-77
2021/03/27 16:00:26;;;;;;;;;;;;;;;15.59;59.00;101617.44;5042386;28;19916;-78
2021/03/27 16:03:09;;;;;;;;;;;;;;;15.57;58.85;101622.53;5060245;28;20490;-81
2021/03/27 16:05:49;;;;;;;;;;;;;;;15.53;59.26;101623.41;5044894;28;19916;-81
2021/03/27 16:08:27;;;;;;;;;;;;;;;15.49;59.25;101620.38;5046592;28;19916;-81
2021/03/27 16:11:11;;;;;;;;;;;;;;;15.45;59.61;101624.06;5040282;28;20321;-81
2021/03/27 16:13:53;;;;;;;;;;;;;;;15.41;59.50;101627.47;5065691;28;19916;-81
2021/03/27 16:16:24;;;;;;;;;;;;;;;15.36;59.35;101621.94;5040542;28;19916;-82
2021/03/27 16:19:12;;;;;;;;;;;;;;;15.31;59.39;101616.41;5043477;28;19956;-81
2021/03/27 16:21:48;;;;;;;;;;;;;;;15.26;59.73;101616.47;5018003;28;19912;-81
2021/03/27 16:24:13;;;;;;;;;;;;;;;15.20;59.94;101614.88;5064929;28;19925;-81
2021/03/27 16:26:46;;;;;;;;;;;;;;;15.16;59.79;101608.22;5055658;28;19920;-81
2021/03/27 16:29:16;;;;;;;;;;;;;;;15.11;60.08;101608.28;5038382;28;19948;-81
2021/03/27 16:31:42;;;;;;;;;;;;;;;15.06;60.17;101602.72;5053312;28;20388;-81
2021/03/27 16:34:19;;;;;;;;;;;;;;;15.03;60.02;101606.13;5045659;28;19920;-81
2021/03/27 16:36:56;;;;;;;;;;;;;;;14.98;59.89;101610.63;5064688;28;19973;-81
2021/03/27 16:39:31;;;;;;;;;;;;;;;14.96;60.39;101607.31;5051305;28;20002;-81
2021/03/27 16:42:03;;;;;;;;;;;;;;;14.94;60.15;101608.75;5035538;28;19916;-81
2021/03/27 16:44:47;;;;;;;;;;;;;;;14.92;59.90;101597.00;5043762;28;19951;-81
2021/03/27 16:47:27;;;;;;;;;;;;;;;14.88;59.89;101599.59;5046902;28;19918;-81
2021/03/27 16:50:15;;;;;;;;;;;;;;;14.86;59.83;101607.44;5041736;28;19920;-81
2021/03/27 16:53:02;;;;;;;;;;;;;;;14.83;59.91;101596.84;5052904;28;20288;-81
2021/03/27 16:55:41;;;;;;;;;;;;;;;14.81;60.39;101601.88;5053714;28;19917;-81
2021/03/27 16:58:16;;;;;;;;;;;;;;;14.78;60.77;101604.44;5056525;28;19924;-79
2021/03/27 17:04:09;;;;;;;;;;;;;;;14.68;61.94;101610.97;5042335;28;19920;-78
2021/03/27 17:06:53;;;;;;;;;;;;;;;14.65;62.20;101604.00;5054687;28;20006;-80
2021/03/27 17:09:19;;;;;;;;;;;;;;;14.61;62.33;101593.72;5080675;28;19919;-77
2021/03/27 17:12:08;;;;;;;;;;;;;;;14.58;62.89;101599.91;5064376;28;20368;-77
2021/03/27 17:14:40;;;;;;;;;;;;;;;14.53;62.60;101595.19;5067345;28;19920;-76
2021/03/27 17:17:18;;;;;;;;;;;;;;;14.50;62.74;101601.34;5089843;28;20059;-76
2021/03/27 17:19:59;;;;;;;;;;;;;;;14.44;62.93;101603.34;5069717;28;19966;-76
2021/03/27 17:22:30;;;;;;;;;;;;;;;14.39;63.01;101603.38;5067554;28;19945;-76
2021/03/27 17:25:13;;;;;;;;;;;;;;;14.33;63.05;101601.78;5067376;28;19924;-77
2021/03/27 17:27:45;;;;;;;;;;;;;;;14.25;63.11;101605.19;5066758;28;19938;-77
2021/03/27 17:30:13;;;;;;;;;;;;;;;14.18;63.41;101613.06;5053697;28;20315;-76
2021/03/27 17:32:40;;;;;;;;;;;;;;;14.13;63.70;101610.31;5040796;28;19924;-77
2021/03/27 17:35:25;;;;;;;;;;;;;;;14.06;63.82;101605.06;5064854;28;19920;-76
2021/03/27 17:38:07;;;;;;;;;;;;;;;13.98;63.97;101600.91;5063667;28;19924;-76
2021/03/27 17:40:33;;;;;;;;;;;;;;;13.92;64.35;101610.47;5054825;28;20003;-76
2021/03/27 17:43:12;;;;;;;;;;;;;;;13.88;64.39;101603.81;5061673;28;19995;-76
2021/03/27 17:45:54;;;;;;;;;;;;;;;13.81;64.58;101608.84;5034173;28;20384;-76
2021/03/27 17:48:47;;;;;;;;;;;;;;;13.76;64.22;101612.53;5037209;28;19999;-77
2021/03/27 17:52:18;;;;;;;;;;;;;;;;;;;;;
2021/03/27 17:55:32;;;;;;;;;;;;;;;13.49;63.35;101618.53;5088334;28;19920;-71
2021/03/27 17:58:00;;;;;;;;;;;;;;;13.37;63.36;101627.25;5043336;28;19928;-78
2021/03/27 18:00:28;;;;;;;;;;;;;;;13.25;63.68;101625.88;5054257;28;19916;-78
2021/03/27 18:02:58;;;;;;;;;;;;;;;13.13;63.73;101627.03;5082919;28;20399;-78
2021/03/27 18:05:27;;;;;;;;;;;;;;;13.01;64.09;101628.44;5054145;28;20003;-77
2021/03/27 18:07:53;;;;;;;;;;;;;;;12.88;64.42;101625.16;5037258;28;19916;-76
2021/03/27 18:10:24;;;;;;;;;;;;;;;12.78;64.59;101619.59;5056935;28;19916;-78
2021/03/27 18:13:10;;;;;;;;;;;;;;;12.65;64.87;101618.25;5034772;28;19919;-77
2021/03/27 18:15:44;;;;;;;;;;;;;;;12.53;64.94;101626.03;5048441;28;20380;-77
2021/03/27 18:18:22;;;;;;;;;;;;;;;12.42;65.10;101621.59;5056801;28;20010;-78
2021/03/27 18:21:06;;;;;;;;;;;;;;;12.29;65.45;101629.41;5068802;28;19942;-76
2021/03/27 18:23:38;;;;;;;;;;;;;;;12.17;65.56;101630.78;5090117;28;19916;-77
2021/03/27 18:26:04;;;;;;;;;;;;;;;12.06;65.62;101630.78;5068846;28;20407;-77
2021/03/27 18:46:19;;;;;;;;;;;;;;;;;;;;;
2021/03/27 19:07:16;;;;;;;;;;;;;;;10.35;68.57;101652.72;4867865;29;19953;-75
2021/03/27 19:13:42;;;;;;;;;;;;;;;10.12;68.93;101670.53;4875019;29;19964;-76
2021/03/27 19:17:11;;;;;;;;;;;;;;;9.99;69.13;101674.56;4906629;29;20023;-76
2021/03/27 19:24:38;;;;;;;;;;;;;;;;;;;;;
2021/03/27 19:27:50;;;;;;;;;;;;;;;9.65;69.48;101694.19;4826826;29;20631;-76
2021/03/27 19:30:53;;;;;;;;;;;;;;;9.52;69.63;101686.25;4797774;29;19932;-76
2021/03/27 19:37:17;;;;;;;;;;;;;;;9.33;69.83;101694.03;4945426;29;19966;-76
2021/03/27 19:40:09;;;;;;;;;;;;;;;9.25;70.06;101694.47;4997409;28;20409;-78
2021/03/27 19:42:53;;;;;;;;;;;;;;;9.17;70.33;101691.06;5026908;28;20524;-73
2021/03/27 19:45:36;;;;;;;;;;;;;;;9.10;70.72;101695.94;5029569;28;19960;-73
2021/03/27 19:48:21;;;;;;;;;;;;;;;9.03;70.69;101695.31;5088619;28;20372;-73
2021/03/27 19:51:05;;;;;;;;;;;;;;;8.92;70.75;101707.34;5080565;28;19920;-73
2021/03/27 19:53:31;;;;;;;;;;;;;;;8.85;70.81;101709.41;5048777;28;20407;-72
2021/03/27 19:55:58;;;;;;;;;;;;;;;8.77;70.97;101707.91;5038955;28;19925;-73
2021/03/27 19:58:23;;;;;;;;;;;;;;;8.73;70.90;101710.34;5047606;28;20023;-73
2021/03/27 20:00:50;;;;;;;;;;;;;;;8.69;71.40;101717.50;5060104;28;19959;-72
2021/03/27 20:03:19;;;;;;;;;;;;;;;8.63;71.21;101712.94;5053265;28;19939;-72
2021/03/27 20:05:47;;;;;;;;;;;;;;;8.57;71.22;101708.44;5068371;28;20536;-72
2021/03/27 20:08:12;;;;;;;;;;;;;;;8.53;71.48;101709.19;5050723;28;20348;-73
2021/03/27 20:10:38;;;;;;;;;;;;;;;8.45;71.59;101710.44;5089124;28;20008;-72
2021/03/27 20:13:08;;;;;;;;;;;;;;;8.41;71.48;101712.03;5051879;28;19920;-73
2021/03/27 20:15:38;;;;;;;;;;;;;;;8.33;71.74;101716.03;5059437;28;19939;-73
2021/03/27 20:18:14;;;;;;;;;;;;;;;8.28;71.61;101716.78;5035922;28;20291;-73
2021/03/27 20:20:39;;;;;;;;;;;;;;;8.22;71.85;101722.47;5052906;28;19975;-73
2021/03/27 20:23:05;;;;;;;;;;;;;;;8.16;71.95;101721.53;5066452;28;19916;-73
2021/03/27 20:25:45;;;;;;;;;;;;;;;8.13;72.04;101722.00;5051362;28;19951;-73
2021/03/27 20:28:15;;;;;;;;;;;;;;;8.08;72.03;101719.16;5057269;28;19917;-72
2021/03/27 20:30:49;;;;;;;;;;;;;;;8.04;72.03;101715.19;5060247;28;21785;-73
2021/03/27 20:33:15;;;;;;;;;;;;;;;7.97;72.16;101712.59;5073462;28;19916;-73
2021/03/27 20:35:51;;;;;;;;;;;;;;;7.92;72.46;101717.19;5048845;28;20434;-73
2021/03/27 20:38:30;;;;;;;;;;;;;;;7.85;72.30;101700.72;5059496;28;19921;-73
2021/03/27 20:41:02;;;;;;;;;;;;;;;7.79;72.40;101708.09;5068375;28;19948;-73
2021/03/27 20:43:36;;;;;;;;;;;;;;;7.75;72.72;101712.44;5037495;28;19932;-73
2021/03/27 20:46:41;;;;;;;;;;;;;;;7.72;72.86;101709.34;5059237;28;19962;-76
2021/03/27 20:49:37;;;;;;;;;;;;;;;7.67;72.81;101709.22;5066951;28;19917;-76
2021/03/27 20:56:27;;;;;;;;;;;;;;;7.55;73.11;101720.31;5096019;28;19981;-76
2021/03/27 20:59:33;;;;;;;;;;;;;;;7.48;72.97;101720.44;5074952;28;19927;-76
2021/03/27 21:05:51;;;;;;;;;;;;;;;;;;;;;
2021/03/27 21:19:53;;;;;;;;;;;;;;;7.15;73.18;101733.00;4935056;28;19922;-76
2021/03/27 21:22:44;;;;;;;;;;;;;;;7.11;73.44;101739.25;4937111;29;20010;-75
2021/03/27 21:26:08;;;;;;;;;;;;;;;;;;;;;
2021/03/27 21:32:51;;;;;;;;;;;;;;;;;;;;;
2021/03/27 21:36:05;;;;;;;;;;;;;;;6.86;73.57;101740.34;4990848;28;19925;-76
2021/03/27 21:42:35;;;;;;;;;;;;;;;6.79;73.56;101749.81;4949824;28;19921;-76
2021/03/27 21:45:29;;;;;;;;;;;;;;;6.71;73.62;101746.34;5027064;28;19968;-76
2021/03/27 21:51:26;;;;;;;;;;;;;;;6.65;73.62;101746.44;5019060;28;20361;-76
2021/03/27 21:57:51;;;;;;;;;;;;;;;;;;;;;
2021/03/27 22:04:33;;;;;;;;;;;;;;;6.47;74.28;101734.41;5034286;28;19924;-75
2021/03/27 22:14:25;;;;;;;;;;;;;;;6.32;74.35;101747.78;5008575;28;19921;-76
2021/03/27 22:17:31;;;;;;;;;;;;;;;;;;;;;
2021/03/27 22:20:50;;;;;;;;;;;;;;;6.25;74.49;101739.63;4925061;28;19919;-76
2021/03/27 22:23:34;;;;;;;;;;;;;;;6.21;74.65;101745.84;4953865;28;19918;-76
2021/03/27 22:29:40;;;;;;;;;;;;;;;6.13;74.97;101751.69;4973322;28;19925;-76
2021/03/27 22:32:41;;;;;;;;;;;;;;;6.08;74.77;101757.06;4937249;28;19919;-76
2021/03/27 22:35:41;;;;;;;;;;;;;;;;;;;;;
2021/03/27 22:45:24;;;;;;;;;;;;;;;5.97;74.83;101766.97;5012327;28;19965;-76
2021/03/27 22:48:38;;;;;;;;;;;;;;;5.92;74.84;101767.63;5014067;28;19921;-76
2021/03/27 23:02:56;;;;;;;;;;;;;;;5.76;74.71;101765.50;4787636;29;19922;-76
2021/03/27 23:16:04;;;;;;;;;;;;;;;5.65;74.86;101755.25;4926979;28;19919;-75
2021/03/27 23:19:31;;;;;;;;;;;;;;;5.58;75.02;101758.94;4938799;29;20029;-76
2021/03/27 23:23:01;;;;;;;;;;;;;;;5.57;74.99;101761.91;4949651;29;19923;-76
2021/03/27 23:26:07;;;;;;;;;;;;;;;5.54;75.26;101768.75;4853990;29;19966;-75
2021/03/27 23:29:26;;;;;;;;;;;;;;;5.52;75.07;101770.06;4885609;29;19923;-75
2021/03/27 23:32:03;;;;;;;;;;;;;;;5.52;74.88;101765.38;4897196;29;19998;-75
2021/03/27 23:34:52;;;;;;;;;;;;;;;5.49;75.02;101767.72;4893443;29;19949;-75
2021/03/27 23:37:56;;;;;;;;;;;;;;;5.45;75.09;101763.78;4886464;28;19924;-75
2021/03/27 23:48:20;;;;;;;;;;;;;;;5.34;75.07;101768.13;4887971;29;19919;-76
2021/03/27 23:51:22;;;;;;;;;;;;;;;5.32;75.10;101759.22;4923306;29;19953;-75
2021/03/27 23:54:17;;;;;;;;;;;;;;;5.29;75.08;101757.81;4942352;28;19923;-76
